sensor_id;sensor_type;location;lat;lon;timestamp;pressure;altitude;pressure_sealevel;temperature;humidity
63901;BME280;50538;53.482;10.294;2023-07-20T00:00:59;100756.16;;;14.61;84.70
63901;BME280;50538;53.482;10.294;2023-07-20T00:11:00;100750.78;;;14.54;84.79
63901;BME280;50538;53.482;10.294;2023-07-20T00:21:00;100761.56;;;14.46;84.66
63901;BME280;50538;53.482;10.294;2023-07-20T00:31:02;100755.41;;;14.46;85.11
63901;BME280;50538;53.482;10.294;2023-07-20T00:41:03;100758.53;;;14.49;91.97
63901;BME280;50538;53.482;10.294;2023-07-20T00:51:03;100735.50;;;14.48;93.00
63901;BME280;50538;53.482;10.294;2023-07-20T01:01:04;100746.13;;;14.42;95.67
63901;BME280;50538;53.482;10.294;2023-07-20T01:11:20;100753.88;;;14.37;99.13
63901;BME280;50538;53.482;10.294;2023-07-20T01:21:40;100756.28;;;14.32;100.00
63901;BME280;50538;53.482;10.294;2023-07-20T01:31:47;100749.47;;;14.29;100.00
63901;BME280;50538;53.482;10.294;2023-07-20T01:41:51;100755.47;;;14.31;100.00
63901;BME280;50538;53.482;10.294;2023-07-20T01:51:51;100749.09;;;14.32;100.00
63901;BME280;50538;53.482;10.294;2023-07-20T02:01:52;100742.09;;;14.31;100.00
63901;BME280;50538;53.482;10.294;2023-07-20T02:11:52;100738.59;;;14.31;100.00
63901;BME280;50538;53.482;10.294;2023-07-20T02:21:52;100737.41;;;14.33;100.00
63901;BME280;50538;53.482;10.294;2023-07-20T02:31:53;100739.88;;;14.35;100.00
63901;BME280;50538;53.482;10.294;2023-07-20T02:41:53;100745.22;;;14.35;100.00
63901;BME280;50538;53.482;10.294;2023-07-20T02:51:54;100761.69;;;14.38;100.00
63901;BME280;50538;53.482;10.294;2023-07-20T03:01:54;100756.34;;;14.38;100.00
63901;BME280;50538;53.482;10.294;2023-07-20T03:11:55;100758.00;;;14.39;100.00
63901;BME280;50538;53.482;10.294;2023-07-20T03:21:56;100761.69;;;14.38;100.00
63901;BME280;50538;53.482;10.294;2023-07-20T03:31:56;100761.06;;;14.36;100.00
63901;BME280;50538;53.482;10.294;2023-07-20T03:41:57;100761.69;;;14.38;100.00
63901;BME280;50538;53.482;10.294;2023-07-20T03:51:58;100766.03;;;14.39;100.00
63901;BME280;50538;53.482;10.294;2023-07-20T04:01:58;100775.31;;;14.43;100.00
63901;BME280;50538;53.482;10.294;2023-07-20T04:11:59;100779.19;;;14.41;100.00
63901;BME280;50538;53.482;10.294;2023-07-20T04:22:00;100783.72;;;14.40;100.00
63901;BME280;50538;53.482;10.294;2023-07-20T04:32:00;100789.69;;;14.42;100.00
63901;BME280;50538;53.482;10.294;2023-07-20T04:42:00;100792.25;;;14.50;100.00
63901;BME280;50538;53.482;10.294;2023-07-20T04:52:02;100794.19;;;14.63;100.00
63901;BME280;50538;53.482;10.294;2023-07-20T05:02:03;100805.22;;;14.75;100.00
63901;BME280;50538;53.482;10.294;2023-07-20T05:12:03;100790.88;;;14.82;100.00
63901;BME280;50538;53.482;10.294;2023-07-20T05:22:04;100789.53;;;14.93;100.00
63901;BME280;50538;53.482;10.294;2023-07-20T05:32:06;100795.66;;;15.08;100.00
63901;BME280;50538;53.482;10.294;2023-07-20T05:42:06;100794.34;;;15.26;100.00
63901;BME280;50538;53.482;10.294;2023-07-20T05:52:07;100791.66;;;15.53;100.00
63901;BME280;50538;53.482;10.294;2023-07-20T06:02:07;100792.41;;;15.82;100.00
63901;BME280;50538;53.482;10.294;2023-07-20T06:12:08;100803.50;;;16.20;100.00
63901;BME280;50538;53.482;10.294;2023-07-20T06:22:09;100801.38;;;16.63;98.20
63901;BME280;50538;53.482;10.294;2023-07-20T06:32:09;100802.84;;;17.12;96.44
63901;BME280;50538;53.482;10.294;2023-07-20T06:42:10;100807.81;;;17.15;93.73
63901;BME280;50538;53.482;10.294;2023-07-20T06:52:10;100806.53;;;17.50;93.43
63901;BME280;50538;53.482;10.294;2023-07-20T07:02:10;100802.50;;;17.99;88.37
63901;BME280;50538;53.482;10.294;2023-07-20T07:12:11;100804.13;;;18.51;84.46
63901;BME280;50538;53.482;10.294;2023-07-20T07:22:11;100802.34;;;18.39;83.02
63901;BME280;50538;53.482;10.294;2023-07-20T07:32:12;100805.34;;;18.04;79.84
63901;BME280;50538;53.482;10.294;2023-07-20T07:42:12;100813.31;;;18.31;81.05
63901;BME280;50538;53.482;10.294;2023-07-20T07:52:13;100795.31;;;19.19;70.67
63901;BME280;50538;53.482;10.294;2023-07-20T08:02:14;100806.47;;;19.23;68.91
63901;BME280;50538;53.482;10.294;2023-07-20T08:12:14;100818.06;;;19.48;63.77
63901;BME280;50538;53.482;10.294;2023-07-20T08:22:17;100831.47;;;19.30;65.72
63901;BME280;50538;53.482;10.294;2023-07-20T08:32:18;100836.00;;;18.79;65.03
63901;BME280;50538;53.482;10.294;2023-07-20T08:42:18;100832.03;;;19.63;63.36
63901;BME280;50538;53.482;10.294;2023-07-20T08:52:18;100821.91;;;19.95;61.80
63901;BME280;50538;53.482;10.294;2023-07-20T09:02:20;100824.78;;;20.48;59.47
63901;BME280;50538;53.482;10.294;2023-07-20T09:12:24;100839.31;;;20.77;58.65
63901;BME280;50538;53.482;10.294;2023-07-20T09:22:31;100847.19;;;20.49;58.11
63901;BME280;50538;53.482;10.294;2023-07-20T09:32:31;100842.03;;;19.93;64.13
63901;BME280;50538;53.482;10.294;2023-07-20T09:42:38;100829.56;;;20.76;59.29
63901;BME280;50538;53.482;10.294;2023-07-20T09:52:39;100825.69;;;21.72;56.83
63901;BME280;50538;53.482;10.294;2023-07-20T10:02:42;100843.78;;;21.60;53.89
63901;BME280;50538;53.482;10.294;2023-07-20T10:12:48;100864.06;;;20.08;71.33
63901;BME280;50538;53.482;10.294;2023-07-20T10:22:53;100856.88;;;19.83;73.81
63901;BME280;50538;53.482;10.294;2023-07-20T10:32:53;100847.34;;;20.36;67.41
63901;BME280;50538;53.482;10.294;2023-07-20T10:43:04;100837.72;;;21.00;58.93
63901;BME280;50538;53.482;10.294;2023-07-20T10:53:10;100831.44;;;21.64;57.05
63901;BME280;50538;53.482;10.294;2023-07-20T11:03:26;100833.31;;;21.75;55.83
63901;BME280;50538;53.482;10.294;2023-07-20T11:13:27;100826.25;;;21.74;52.22
63901;BME280;50538;53.482;10.294;2023-07-20T11:23:27;100853.41;;;21.33;57.45
63901;BME280;50538;53.482;10.294;2023-07-20T11:33:29;100849.00;;;22.13;51.97
63901;BME280;50538;53.482;10.294;2023-07-20T11:43:30;100850.72;;;22.31;54.92
63901;BME280;50538;53.482;10.294;2023-07-20T11:53:30;100853.78;;;21.95;53.62
63901;BME280;50538;53.482;10.294;2023-07-20T12:03:33;100861.53;;;22.03;53.38
63901;BME280;50538;53.482;10.294;2023-07-20T12:13:42;100864.44;;;21.90;53.93
63901;BME280;50538;53.482;10.294;2023-07-20T12:23:43;100851.94;;;22.12;53.98
63901;BME280;50538;53.482;10.294;2023-07-20T12:33:43;100859.19;;;22.35;52.51
63901;BME280;50538;53.482;10.294;2023-07-20T12:43:44;100855.16;;;22.66;51.14
63901;BME280;50538;53.482;10.294;2023-07-20T12:53:45;100858.59;;;22.73;57.12
63901;BME280;50538;53.482;10.294;2023-07-20T13:03:45;100863.41;;;22.42;56.65
63901;BME280;50538;53.482;10.294;2023-07-20T13:13:45;100858.50;;;22.28;59.08
63901;BME280;50538;53.482;10.294;2023-07-20T13:23:46;100855.56;;;22.29;59.01
63901;BME280;50538;53.482;10.294;2023-07-20T13:33:46;100853.88;;;22.68;56.66
63901;BME280;50538;53.482;10.294;2023-07-20T13:43:46;100848.78;;;22.55;57.76
63901;BME280;50538;53.482;10.294;2023-07-20T13:53:47;100832.72;;;23.10;54.59
63901;BME280;50538;53.482;10.294;2023-07-20T14:03:48;100847.66;;;23.85;51.90
63901;BME280;50538;53.482;10.294;2023-07-20T14:13:49;100839.03;;;23.16;44.80
63901;BME280;50538;53.482;10.294;2023-07-20T14:23:51;100830.88;;;22.83;47.51
63901;BME280;50538;53.482;10.294;2023-07-20T14:33:53;100859.44;;;22.90;49.02
63901;BME280;50538;53.482;10.294;2023-07-20T14:43:53;100844.53;;;23.04;48.42
63901;BME280;50538;53.482;10.294;2023-07-20T14:53:53;100869.03;;;22.69;46.91
63901;BME280;50538;53.482;10.294;2023-07-20T15:03:53;100852.34;;;23.18;48.24
63901;BME280;50538;53.482;10.294;2023-07-20T15:13:54;100838.91;;;24.22;44.57
63901;BME280;50538;53.482;10.294;2023-07-20T15:23:54;100834.41;;;24.54;40.80
63901;BME280;50538;53.482;10.294;2023-07-20T15:33:55;100832.66;;;24.70;40.52
63901;BME280;50538;53.482;10.294;2023-07-20T15:43:56;100840.31;;;24.73;41.19
63901;BME280;50538;53.482;10.294;2023-07-20T15:53:56;100836.03;;;24.55;40.93
63901;BME280;50538;53.482;10.294;2023-07-20T16:03:57;100830.72;;;24.92;43.18
63901;BME280;50538;53.482;10.294;2023-07-20T16:13:58;100833.94;;;24.89;45.95
63901;BME280;50538;53.482;10.294;2023-07-20T16:23:58;100836.63;;;26.00;40.23
63901;BME280;50538;53.482;10.294;2023-07-20T16:33:59;100834.25;;;26.24;37.47
63901;BME280;50538;53.482;10.294;2023-07-20T16:43:59;100824.13;;;25.99;39.04
63901;BME280;50538;53.482;10.294;2023-07-20T16:54:00;100818.03;;;26.70;37.30
63901;BME280;50538;53.482;10.294;2023-07-20T17:04:00;100815.88;;;27.38;34.51
63901;BME280;50538;53.482;10.294;2023-07-20T17:14:01;100808.63;;;28.03;33.74
63901;BME280;50538;53.482;10.294;2023-07-20T17:24:01;100820.00;;;27.25;34.35
63901;BME280;50538;53.482;10.294;2023-07-20T17:34:02;100803.47;;;26.14;37.85
63901;BME280;50538;53.482;10.294;2023-07-20T17:44:03;100808.97;;;25.24;41.72
63901;BME280;50538;53.482;10.294;2023-07-20T17:54:03;100807.28;;;24.86;41.71
63901;BME280;50538;53.482;10.294;2023-07-20T18:04:04;100804.03;;;24.30;42.33
63901;BME280;50538;53.482;10.294;2023-07-20T18:14:06;100799.88;;;24.77;41.44
63901;BME280;50538;53.482;10.294;2023-07-20T18:24:06;100789.53;;;25.43;40.03
63901;BME280;50538;53.482;10.294;2023-07-20T18:34:07;100798.97;;;23.95;43.08
63901;BME280;50538;53.482;10.294;2023-07-20T18:44:07;100813.50;;;22.67;45.61
63901;BME280;50538;53.482;10.294;2023-07-20T18:54:07;100818.28;;;21.68;47.32
63901;BME280;50538;53.482;10.294;2023-07-20T19:04:08;100824.22;;;20.88;50.42
63901;BME280;50538;53.482;10.294;2023-07-20T19:14:08;100820.66;;;20.46;52.38
63901;BME280;50538;53.482;10.294;2023-07-20T19:24:09;100832.53;;;20.08;53.78
63901;BME280;50538;53.482;10.294;2023-07-20T19:34:09;100840.63;;;19.72;55.91
63901;BME280;50538;53.482;10.294;2023-07-20T19:44:09;100842.03;;;19.56;56.91
63901;BME280;50538;53.482;10.294;2023-07-20T19:54:10;100850.28;;;19.36;57.85
63901;BME280;50538;53.482;10.294;2023-07-20T20:04:10;100853.56;;;19.13;59.27
63901;BME280;50538;53.482;10.294;2023-07-20T20:14:11;100843.72;;;19.01;59.99
63901;BME280;50538;53.482;10.294;2023-07-20T20:24:12;100850.84;;;18.89;60.91
63901;BME280;50538;53.482;10.294;2023-07-20T20:34:12;100854.44;;;18.76;62.13
63901;BME280;50538;53.482;10.294;2023-07-20T20:44:13;100852.81;;;18.68;62.59
63901;BME280;50538;53.482;10.294;2023-07-20T20:54:15;100853.53;;;18.57;63.17
63901;BME280;50538;53.482;10.294;2023-07-20T21:04:15;100847.44;;;18.37;64.55
63901;BME280;50538;53.482;10.294;2023-07-20T21:14:15;100842.53;;;18.14;64.88
63901;BME280;50538;53.482;10.294;2023-07-20T21:24:16;100847.56;;;17.91;65.83
63901;BME280;50538;53.482;10.294;2023-07-20T21:34:16;100848.84;;;17.68;66.76
63901;BME280;50538;53.482;10.294;2023-07-20T21:44:16;100841.47;;;17.44;66.91
63901;BME280;50538;53.482;10.294;2023-07-20T21:54:17;100853.63;;;17.27;67.29
63901;BME280;50538;53.482;10.294;2023-07-20T22:04:17;100849.91;;;17.08;68.38
63901;BME280;50538;53.482;10.294;2023-07-20T22:14:17;100840.19;;;17.00;67.84
63901;BME280;50538;53.482;10.294;2023-07-20T22:24:18;100848.84;;;16.89;69.46
63901;BME280;50538;53.482;10.294;2023-07-20T22:34:18;100843.47;;;16.76;69.61
63901;BME280;50538;53.482;10.294;2023-07-20T22:44:18;100829.00;;;16.64;70.40
63901;BME280;50538;53.482;10.294;2023-07-20T22:54:20;100827.13;;;16.58;72.16
63901;BME280;50538;53.482;10.294;2023-07-20T23:04:20;100833.09;;;16.53;72.78
63901;BME280;50538;53.482;10.294;2023-07-20T23:14:20;100837.19;;;16.42;73.38
63901;BME280;50538;53.482;10.294;2023-07-20T23:24:21;100822.53;;;16.38;74.43
63901;BME280;50538;53.482;10.294;2023-07-20T23:34:22;100820.47;;;16.34;74.87
63901;BME280;50538;53.482;10.294;2023-07-20T23:44:23;100805.22;;;16.28;75.73
63901;BME280;50538;53.482;10.294;2023-07-20T23:54:23;100805.38;;;16.19;75.28
